Time;durP1;ratioP1;P1;durP2;ratioP2;P2;SDS_P1;SDS_P2;PMS_P1;PMS_P2;Temp;Humidity;BMP_temperature;BMP_pressure;BME280_temperature;BME280_humidity;BME280_pressure;Samples;Min_cycle;Max_cycle;Signal;HPM_P1;HPM_P2
2024/04/03 00:02:11;;;;;;;4.95;1.15;;;9.20;99.90;;;;;;5026482;28;20139;-73
2024/04/03 00:04:37;;;;;;;2.45;0.75;;;9.20;99.90;;;;;;5032967;28;20099;-73
2024/04/03 00:07:03;;;;;;;2.47;0.80;;;9.10;99.90;;;;;;5032658;28;20062;-73
2024/04/03 00:09:29;;;;;;;1.92;0.70;;;9.10;99.90;;;;;;5034354;28;20021;-72
2024/04/03 00:11:55;;;;;;;2.35;0.90;;;9.10;99.90;;;;;;5031093;28;20060;-72
2024/04/03 00:14:20;;;;;;;4.97;0.85;;;9.00;99.90;;;;;;5033863;28;20091;-73
2024/04/03 00:16:46;;;;;;;4.03;0.70;;;9.00;99.90;;;;;;5042531;28;20078;-72
2024/04/03 00:19:11;;;;;;;3.88;0.93;;;9.00;99.90;;;;;;5032453;28;20032;-72
2024/04/03 00:21:37;;;;;;;2.47;0.55;;;9.00;99.90;;;;;;5032171;28;20057;-73
2024/04/03 00:24:03;;;;;;;6.60;1.02;;;8.90;99.90;;;;;;5033261;28;20037;-73
2024/04/03 00:26:29;;;;;;;2.97;0.80;;;8.90;99.90;;;;;;5033221;28;20028;-73
2024/04/03 00:28:54;;;;;;;5.07;1.20;;;;;;;;;;5019357;28;20125;-73
2024/04/03 00:31:20;;;;;;;3.70;1.27;;;;;;;;;;5025260;28;20030;-73
2024/04/03 00:33:46;;;;;;;3.20;1.17;;;;;;;;;;5033597;28;20482;-73
2024/04/03 00:36:12;;;;;;;4.15;1.38;;;;;;;;;;5025332;28;20030;-73
2024/04/03 00:38:38;;;;;;;4.00;1.58;;;;;;;;;;5030461;28;20029;-72
2024/04/03 00:41:04;;;;;;;6.30;1.52;;;;;;;;;;5032169;28;20065;-73
2024/04/03 00:43:30;;;;;;;4.22;1.70;;;;;;;;;;5033443;28;20013;-72
2024/04/03 00:45:58;;;;;;;3.90;1.30;;;;;;;;;;5032176;28;20437;-72
2024/04/03 00:48:24;;;;;;;2.42;0.80;;;;;;;;;;5030114;28;20033;-72
2024/04/03 00:50:53;;;;;;;4.93;1.50;;;8.60;99.90;;;;;;5032175;28;20025;-71
2024/04/03 00:53:19;;;;;;;4.90;1.27;;;8.40;99.90;;;;;;5029326;28;20061;-72
2024/04/03 00:55:45;;;;;;;6.40;1.60;;;8.30;99.90;;;;;;5032234;28;20344;-72
2024/04/03 00:58:11;;;;;;;4.13;1.20;;;8.20;99.90;;;;;;5031007;28;20389;-73
2024/04/03 01:00:36;;;;;;;6.80;1.80;;;8.10;99.90;;;;;;5035784;28;20104;-73
2024/04/03 01:03:06;;;;;;;4.47;1.38;;;8.00;99.90;;;;;;5022103;28;20087;-73
2024/04/03 01:05:32;;;;;;;5.70;1.60;;;8.00;99.90;;;;;;5020400;28;20466;-73
2024/04/03 01:07:57;;;;;;;4.57;0.95;;;8.00;99.90;;;;;;5025085;28;20725;-73
2024/04/03 01:10:24;;;;;;;5.18;1.00;;;8.00;99.90;;;;;;5024598;28;20041;-73
2024/04/03 01:12:51;;;;;;;6.05;1.10;;;8.00;99.90;;;;;;5027275;28;20025;-72
2024/04/03 01:15:17;;;;;;;2.47;0.88;;;8.00;99.90;;;;;;5032382;28;20049;-73
2024/04/03 01:17:42;;;;;;;2.08;0.90;;;8.00;99.90;;;;;;5032293;28;20049;-73
2024/04/03 01:20:08;;;;;;;2.30;0.95;;;8.10;99.90;;;;;;5032085;28;20463;-73
2024/04/03 01:22:34;;;;;;;2.50;0.90;;;8.10;99.90;;;;;;5040632;28;20037;-72
2024/04/03 01:25:01;;;;;;;4.15;0.80;;;8.10;99.90;;;;;;5042000;28;20363;-73
2024/04/03 01:27:28;;;;;;;3.25;0.98;;;8.20;99.90;;;;;;5026042;28;20026;-72
2024/04/03 01:29:53;;;;;;;7.00;1.50;;;8.20;99.90;;;;;;5031624;28;20031;-73
2024/04/03 01:32:19;;;;;;;5.63;1.60;;;8.20;99.90;;;;;;5032166;28;20378;-73
2024/04/03 01:34:45;;;;;;;4.57;1.60;;;8.30;99.90;;;;;;5024899;28;20075;-72
2024/04/03 01:37:11;;;;;;;3.45;1.35;;;8.30;99.90;;;;;;5015151;28;20018;-72
2024/04/03 01:39:36;;;;;;;6.38;1.75;;;8.30;99.90;;;;;;5032493;28;20037;-72
2024/04/03 01:42:02;;;;;;;5.75;1.48;;;8.20;99.90;;;;;;5031468;28;20459;-72
2024/04/03 01:44:27;;;;;;;4.18;1.60;;;8.10;99.90;;;;;;5026442;28;20069;-72
2024/04/03 01:46:53;;;;;;;7.32;1.88;;;8.10;99.90;;;;;;5030594;28;20030;-72
2024/04/03 01:49:19;;;;;;;5.13;1.45;;;8.00;99.90;;;;;;5025408;28;20034;-72
2024/04/03 01:51:44;;;;;;;4.05;1.50;;;7.90;99.90;;;;;;5031800;28;20029;-73
2024/04/03 01:54:10;;;;;;;2.67;1.08;;;7.80;99.90;;;;;;5029136;28;20034;-72
2024/04/03 01:56:35;;;;;;;4.75;1.70;;;7.80;99.90;;;;;;5035193;28;20025;-72
2024/04/03 01:59:01;;;;;;;3.78;1.85;;;7.70;99.90;;;;;;5022341;28;20030;-72
2024/04/03 02:01:27;;;;;;;6.63;1.67;;;7.70;99.90;;;;;;5025875;28;20037;-72
2024/04/03 02:03:52;;;;;;;3.85;1.35;;;7.60;99.90;;;;;;5031634;28;20033;-72
2024/04/03 02:06:18;;;;;;;3.83;2.00;;;7.60;99.90;;;;;;5040580;28;20132;-72
2024/04/03 02:08:43;;;;;;;4.50;1.27;;;7.50;99.90;;;;;;5031623;28;20382;-73
2024/04/03 02:11:09;;;;;;;3.88;1.20;;;7.50;99.90;;;;;;5030524;28;20041;-73
2024/04/03 02:13:34;;;;;;;4.80;1.10;;;7.50;99.90;;;;;;5031780;28;20455;-72
2024/04/03 02:16:00;;;;;;;2.55;0.98;;;7.50;99.90;;;;;;5030671;28;20504;-73
2024/04/03 02:18:26;;;;;;;2.03;0.95;;;7.50;99.90;;;;;;5025029;28;20106;-73
2024/04/03 02:20:51;;;;;;;6.43;0.98;;;7.50;99.90;;;;;;5031524;28;20021;-72
2024/04/03 02:23:17;;;;;;;3.15;1.00;;;7.50;99.90;;;;;;5030710;28;20486;-73
2024/04/03 02:25:42;;;;;;;2.88;1.23;;;7.40;99.90;;;;;;5031641;28;20021;-73
2024/04/03 02:28:08;;;;;;;3.88;1.50;;;7.40;99.90;;;;;;5030108;28;20489;-73
2024/04/03 02:30:33;;;;;;;4.32;1.15;;;7.40;99.90;;;;;;5030987;28;20560;-71
2024/04/03 02:32:59;;;;;;;5.88;1.52;;;7.40;99.90;;;;;;5029315;28;20041;-73
2024/04/03 02:35:27;;;;;;;3.13;1.30;;;7.50;99.90;;;;;;5029884;28;20113;-73
2024/04/03 02:37:52;;;;;;;3.28;1.23;;;7.40;99.90;;;;;;5030431;28;20026;-71
2024/04/03 02:40:18;;;;;;;5.68;1.70;;;7.60;99.90;;;;;;5031252;28;20449;-73
2024/04/03 02:42:43;;;;;;;3.00;1.30;;;7.60;99.90;;;;;;5031380;28;20442;-74
2024/04/03 02:45:09;;;;;;;3.78;1.42;;;7.60;99.90;;;;;;5029298;28;20096;-72
2024/04/03 02:47:35;;;;;;;3.97;1.15;;;7.60;99.90;;;;;;5014612;28;20096;-73
2024/04/03 02:50:01;;;;;;;3.13;1.23;;;7.60;99.90;;;;;;5031296;28;20080;-73
2024/04/03 02:52:27;;;;;;;3.30;1.40;;;7.60;99.90;;;;;;5039966;28;20446;-74
2024/04/03 02:54:52;;;;;;;6.75;1.35;;;7.60;99.90;;;;;;5049367;28;20029;-71
2024/04/03 02:57:18;;;;;;;6.10;1.50;;;7.60;99.90;;;;;;5039891;28;20041;-73
2024/04/03 02:59:43;;;;;;;3.70;1.48;;;7.60;99.90;;;;;;5032269;28;20029;-76
2024/04/03 03:02:09;;;;;;;5.47;1.77;;;7.60;99.90;;;;;;5030659;28;20021;-74
2024/04/03 03:04:42;;;;;;;3.40;1.38;;;7.60;99.90;;;;;;5030556;28;20045;-72
2024/04/03 03:07:09;;;;;;;2.30;1.38;;;7.60;99.90;;;;;;5029461;28;20033;-73
2024/04/03 03:09:35;;;;;;;3.70;1.00;;;7.50;99.90;;;;;;5029528;28;20041;-73
2024/04/03 03:12:01;;;;;;;2.30;1.17;;;7.50;99.90;;;;;;5029463;28;20044;-73
2024/04/03 03:14:27;;;;;;;3.30;1.45;;;7.50;99.90;;;;;;5030825;28;20112;-73
2024/04/03 03:16:52;;;;;;;3.60;1.40;;;7.60;99.90;;;;;;5029758;28;20036;-72
2024/04/03 03:19:18;;;;;;;3.90;1.20;;;7.60;99.90;;;;;;5031902;28;20394;-74
2024/04/03 03:21:43;;;;;;;4.05;1.15;;;7.60;99.90;;;;;;5031090;28;20029;-73
2024/04/03 03:24:09;;;;;;;2.65;1.40;;;7.60;99.90;;;;;;5030164;28;20601;-73
2024/04/03 03:26:34;;;;;;;3.72;1.13;;;7.60;99.90;;;;;;5020847;28;20033;-72
2024/04/03 03:29:00;;;;;;;5.10;1.38;;;7.60;99.90;;;;;;5022564;28;20041;-72
2024/04/03 03:31:28;;;;;;;3.80;1.25;;;7.60;99.90;;;;;;5030282;28;20033;-73
2024/04/03 03:33:54;;;;;;;6.88;1.27;;;7.60;99.90;;;;;;5029679;28;20394;-73
2024/04/03 03:36:19;;;;;;;7.10;1.38;;;7.70;99.90;;;;;;5029619;28;20088;-73
2024/04/03 03:38:45;;;;;;;5.97;1.63;;;7.70;99.90;;;;;;5030701;28;20707;-73
2024/04/03 03:41:11;;;;;;;5.20;1.50;;;7.70;99.90;;;;;;5028972;28;20025;-73
2024/04/03 03:43:36;;;;;;;3.45;1.30;;;7.70;99.90;;;;;;5025777;28;20029;-73
2024/04/03 03:46:02;;;;;;;4.07;1.73;;;7.70;99.90;;;;;;5029503;28;20083;-73
2024/04/03 03:53:56;;;;;;;6.53;1.60;;;7.60;99.90;;;;;;5031329;28;20032;-73
2024/04/03 03:56:23;;;;;;;3.15;1.90;;;7.60;99.90;;;;;;5037373;28;20029;-73
2024/04/03 03:58:48;;;;;;;4.80;1.83;;;7.70;99.90;;;;;;5043681;28;20034;-73
2024/04/03 04:01:14;;;;;;;3.13;1.67;;;7.60;99.90;;;;;;5026438;28;20036;-73
2024/04/03 04:03:39;;;;;;;3.38;1.30;;;7.60;99.90;;;;;;5029241;28;20367;-73
2024/04/03 04:06:05;;;;;;;3.65;1.48;;;7.60;99.90;;;;;;5028072;28;20053;-72
2024/04/03 04:08:31;;;;;;;3.22;1.55;;;7.60;99.90;;;;;;5030631;28;20113;-73
2024/04/03 04:10:58;;;;;;;4.47;1.85;;;7.60;99.90;;;;;;5028835;28;20429;-73
2024/04/03 04:13:23;;;;;;;3.42;1.70;;;7.60;99.90;;;;;;5029681;28;20034;-73
2024/04/03 04:15:50;;;;;;;3.83;1.60;;;7.60;99.90;;;;;;5030291;28;20129;-71
2024/04/03 04:18:16;;;;;;;3.75;1.70;;;7.60;99.90;;;;;;5024175;28;20451;-72
2024/04/03 04:20:55;;;;;;;4.38;1.90;;;7.60;99.90;;;;;;5026523;28;20103;-72
2024/04/03 04:23:21;;;;;;;6.10;2.05;;;7.60;99.90;;;;;;5030491;28;20466;-73
2024/04/03 04:26:04;;;;;;;7.18;2.65;;;7.60;99.90;;;;;;5029671;28;20100;-74
2024/04/03 04:28:33;;;;;;;4.55;2.20;;;7.60;99.90;;;;;;5030482;28;20025;-73
2024/04/03 04:31:00;;;;;;;4.57;2.28;;;7.60;99.90;;;;;;5033074;28;20105;-73
2024/04/03 04:33:34;;;;;;;6.30;2.10;;;7.60;99.90;;;;;;5036444;28;20037;-72
2024/04/03 04:36:00;;;;;;;6.03;2.40;;;7.60;99.90;;;;;;5031812;28;20025;-73
2024/04/03 04:38:27;;;;;;;4.07;2.13;;;7.60;99.90;;;;;;5029009;28;20039;-73
2024/04/03 04:40:57;;;;;;;5.57;1.90;;;7.60;99.90;;;;;;5035767;28;20028;-72
2024/04/03 04:43:23;;;;;;;;;;;7.60;99.90;;;;;;5036235;28;20109;-73
2024/04/03 04:46:15;;;;;;;6.00;2.15;;;7.60;99.90;;;;;;5035815;28;19952;-72
2024/04/03 04:48:40;;;;;;;4.80;2.03;;;7.60;99.90;;;;;;5031872;28;20038;-73
2024/04/03 04:51:06;;;;;;;5.57;2.10;;;7.80;99.90;;;;;;5026359;28;20041;-72
2024/04/03 04:53:31;;;;;;;6.22;2.28;;;7.80;99.90;;;;;;5033348;28;20021;-73
2024/04/03 04:56:05;;;;;;;5.80;1.52;;;7.80;99.90;;;;;;5027040;28;20081;-73
2024/04/03 04:58:32;;;;;;;7.15;2.17;;;7.90;99.90;;;;;;5027984;28;20026;-72
2024/04/03 05:01:05;;;;;;;3.50;1.92;;;7.90;99.90;;;;;;5031735;28;20072;-72
2024/04/03 05:03:32;;;;;;;5.15;1.80;;;7.80;99.90;;;;;;5028445;28;20030;-72
2024/04/03 05:05:58;;;;;;;6.85;2.45;;;7.90;99.90;;;;;;5039926;28;20064;-73
2024/04/03 05:08:25;;;;;;;9.80;2.67;;;7.90;99.90;;;;;;5027555;28;20038;-71
2024/04/03 05:10:51;;;;;;;3.58;1.50;;;7.90;99.90;;;;;;5032345;28;20029;-75
2024/04/03 05:13:18;;;;;;;6.70;2.22;;;7.90;99.90;;;;;;5032717;28;20038;-73
2024/04/03 05:15:45;;;;;;;5.43;2.50;;;7.90;99.90;;;;;;5033264;28;20052;-75
2024/04/03 05:18:13;;;;;;;4.90;2.08;;;7.90;99.90;;;;;;5040605;28;20116;-76
2024/04/03 05:20:40;;;;;;;8.38;2.13;;;8.00;99.90;;;;;;5029254;28;20026;-74
2024/04/03 05:23:06;;;;;;;7.18;2.33;;;8.00;99.90;;;;;;5027609;28;20021;-73
2024/04/03 05:25:31;;;;;;;6.10;2.05;;;8.10;99.90;;;;;;5038446;28;20025;-73
2024/04/03 05:27:57;;;;;;;3.78;1.88;;;8.10;99.90;;;;;;5028178;28;20033;-73
2024/04/03 05:30:24;;;;;;;3.45;1.27;;;8.20;99.90;;;;;;5029898;28;20049;-74
2024/04/03 05:32:50;;;;;;;3.75;1.38;;;8.10;99.90;;;;;;5027562;28;20021;-72
2024/04/03 05:35:17;;;;;;;3.42;1.02;;;8.20;99.90;;;;;;5025689;28;20386;-73
2024/04/03 05:37:46;;;;;;;3.60;0.90;;;8.30;99.90;;;;;;5030830;28;20037;-72
2024/04/03 05:40:12;;;;;;;4.18;1.13;;;8.40;99.90;;;;;;5031061;28;20021;-73
2024/04/03 05:42:38;;;;;;;3.78;1.05;;;8.50;99.90;;;;;;5024725;28;20022;-73
2024/04/03 05:45:05;;;;;;;3.83;0.70;;;8.60;99.90;;;;;;5026543;28;20512;-76
2024/04/03 05:47:32;;;;;;;3.42;1.13;;;8.60;99.90;;;;;;5025361;28;20033;-76
2024/04/03 05:49:58;;;;;;;2.50;1.00;;;8.70;99.90;;;;;;5028569;28;20041;-75
2024/04/03 05:52:24;;;;;;;4.95;1.80;;;8.80;99.90;;;;;;5030815;28;20088;-78
2024/04/03 05:54:50;;;;;;;7.00;1.80;;;8.90;99.90;;;;;;5030818;28;20029;-73
2024/04/03 05:57:17;;;;;;;3.35;1.60;;;9.00;99.90;;;;;;5030404;28;20037;-76
2024/04/03 05:59:44;;;;;;;8.52;2.33;;;9.00;99.90;;;;;;5028111;28;20029;-80
2024/04/03 06:02:11;;;;;;;2.80;1.25;;;9.10;99.90;;;;;;5035403;28;20163;-81
2024/04/03 06:04:37;;;;;;;7.00;1.30;;;9.20;99.90;;;;;;5023991;28;20053;-82
2024/04/03 06:07:03;;;;;;;3.42;1.02;;;9.20;99.90;;;;;;5018990;28;20387;-80
2024/04/03 06:09:30;;;;;;;1.75;0.57;;;9.40;99.90;;;;;;5022201;28;20132;-74
2024/04/03 06:11:56;;;;;;;3.65;0.85;;;9.50;99.90;;;;;;5030886;28;20200;-82
2024/04/03 06:14:22;;;;;;;2.35;0.75;;;9.60;99.90;;;;;;5013416;28;20026;-76
2024/04/03 06:16:48;;;;;;;2.30;0.93;;;9.60;99.90;;;;;;5031428;28;20447;-76
2024/04/03 06:19:15;;;;;;;1.77;0.50;;;9.60;99.90;;;;;;5030239;28;20049;-75
2024/04/03 06:21:43;;;;;;;1.80;0.82;;;9.60;99.90;;;;;;5023511;28;20063;-74
2024/04/03 06:24:08;;;;;;;2.55;0.93;;;9.60;99.90;;;;;;5026305;28;20025;-74
2024/04/03 06:26:35;;;;;;;2.70;0.63;;;9.70;99.90;;;;;;5028860;28;20121;-73
2024/04/03 06:29:01;;;;;;;2.13;0.80;;;9.80;99.90;;;;;;5028706;28;20029;-74
2024/04/03 06:31:27;;;;;;;1.30;0.60;;;9.80;99.90;;;;;;5029795;28;20061;-74
2024/04/03 06:33:55;;;;;;;1.92;0.60;;;9.90;99.90;;;;;;5024299;28;20109;-71
2024/04/03 06:36:22;;;;;;;2.65;0.50;;;10.00;99.90;;;;;;5030186;28;20427;-74
2024/04/03 06:38:47;;;;;;;1.42;0.88;;;10.10;99.90;;;;;;5031177;28;20363;-76
2024/04/03 06:41:13;;;;;;;4.05;1.10;;;10.10;99.90;;;;;;5029246;28;20029;-74
2024/04/03 06:43:38;;;;;;;2.15;0.88;;;10.20;99.90;;;;;;5025355;28;20033;-75
2024/04/03 06:46:04;;;;;;;1.80;1.20;;;10.30;99.90;;;;;;5020923;28;20083;-75
2024/04/03 06:48:30;;;;;;;1.60;0.80;;;10.40;99.90;;;;;;5029729;28;20021;-73
2024/04/03 06:50:56;;;;;;;2.60;0.90;;;10.40;99.90;;;;;;5024154;28;20045;-73
2024/04/03 06:53:24;;;;;;;2.45;0.80;;;10.60;99.90;;;;;;5030693;28;20040;-73
2024/04/03 06:55:55;;;;;;;1.55;0.52;;;10.70;99.90;;;;;;5018737;28;20017;-71
2024/04/03 06:58:21;;;;;;;2.03;1.02;;;10.70;99.90;;;;;;5030771;28;20573;-74
2024/04/03 07:00:47;;;;;;;1.88;0.60;;;10.80;99.90;;;;;;5024140;28;20390;-77
2024/04/03 07:03:12;;;;;;;4.00;0.95;;;10.80;99.90;;;;;;5027122;28;20033;-75
2024/04/03 07:05:39;;;;;;;2.38;0.60;;;10.80;99.90;;;;;;5029396;28;20048;-78
2024/04/03 07:08:06;;;;;;;1.88;0.85;;;10.70;99.90;;;;;;5026028;28;20037;-74
2024/04/03 07:10:32;;;;;;;1.85;0.90;;;10.60;99.90;;;;;;5030784;28;20072;-73
2024/04/03 07:13:00;;;;;;;4.15;0.70;;;10.60;99.90;;;;;;5028819;28;20061;-73
2024/04/03 07:15:26;;;;;;;1.67;0.60;;;10.60;99.90;;;;;;5030167;28;20033;-73
2024/04/03 07:17:52;;;;;;;5.28;0.90;;;10.50;99.90;;;;;;5029720;28;20026;-70
2024/04/03 07:20:18;;;;;;;2.28;0.80;;;10.50;99.90;;;;;;5029258;28;20037;-73
2024/04/03 07:22:43;;;;;;;2.10;0.70;;;10.60;99.90;;;;;;5022730;28;20029;-73
2024/04/03 07:25:11;;;;;;;2.08;1.05;;;10.60;99.90;;;;;;5024528;28;20090;-72
2024/04/03 07:27:43;;;;;;;2.30;1.00;;;10.60;99.90;;;;;;5026485;28;20030;-72
2024/04/03 07:30:09;;;;;;;5.28;0.82;;;10.70;99.90;;;;;;5022439;28;20042;-73
2024/04/03 07:32:35;;;;;;;3.25;0.88;;;10.70;99.90;;;;;;5029533;28;20048;-72
2024/04/03 07:35:00;;;;;;;6.93;1.00;;;10.70;99.90;;;;;;5029415;28;20348;-72
2024/04/03 07:37:26;;;;;;;4.75;0.90;;;10.80;99.90;;;;;;5029491;28;20160;-74
2024/04/03 07:39:52;;;;;;;2.08;0.55;;;11.00;99.90;;;;;;5030001;28;20033;-71
2024/04/03 07:42:17;;;;;;;4.28;1.13;;;11.00;99.90;;;;;;5023289;28;20391;-73
2024/04/03 07:44:43;;;;;;;1.50;0.60;;;11.00;99.90;;;;;;5029915;28;20112;-73
2024/04/03 07:47:09;;;;;;;2.97;1.35;;;11.10;99.90;;;;;;5028741;28;20029;-73
2024/04/03 07:49:34;;;;;;;2.15;0.90;;;11.20;99.90;;;;;;5029485;28;20441;-73
2024/04/03 07:52:00;;;;;;;2.28;1.08;;;11.30;99.90;;;;;;5028435;28;20034;-73
2024/04/03 07:54:26;;;;;;;1.25;0.70;;;11.30;99.90;;;;;;5030277;28;20059;-73
2024/04/03 07:56:51;;;;;;;2.72;0.98;;;11.40;99.90;;;;;;5029160;28;20029;-71
2024/04/03 07:59:17;;;;;;;3.53;0.93;;;11.40;99.90;;;;;;5026116;28;20501;-73
2024/04/03 08:01:44;;;;;;;3.05;0.82;;;11.40;99.90;;;;;;5029007;28;20037;-74
2024/04/03 08:04:09;;;;;;;2.35;0.70;;;11.50;99.90;;;;;;5028418;28;20037;-74
2024/04/03 08:06:35;;;;;;;1.45;0.70;;;11.60;99.90;;;;;;5024347;28;20076;-71
2024/04/03 08:09:01;;;;;;;1.77;0.80;;;11.70;99.90;;;;;;5023768;28;20022;-73
2024/04/03 08:11:26;;;;;;;1.17;0.50;;;11.80;99.90;;;;;;5031683;28;20030;-73
2024/04/03 08:13:52;;;;;;;1.70;0.73;;;11.80;99.90;;;;;;5032525;28;20443;-71
2024/04/03 08:16:18;;;;;;;0.82;0.73;;;12.00;99.90;;;;;;5029972;28;20021;-73
2024/04/03 08:18:44;;;;;;;2.47;0.80;;;12.10;99.90;;;;;;5021946;28;20438;-72
2024/04/03 08:21:10;;;;;;;2.38;0.77;;;12.20;99.90;;;;;;5016647;28;20029;-73
2024/04/03 08:23:37;;;;;;;4.38;1.00;;;12.50;99.90;;;;;;5033298;28;20030;-72
2024/04/03 08:26:07;;;;;;;3.40;0.88;;;12.70;99.90;;;;;;5032286;28;20017;-74
2024/04/03 08:28:37;;;;;;;3.80;0.90;;;12.80;99.90;;;;;;5030177;28;20463;-73
2024/04/03 08:31:09;;;;;;;3.25;0.80;;;13.00;99.90;;;;;;5031922;28;20041;-73
2024/04/03 08:33:34;;;;;;;1.38;0.90;;;13.20;99.90;;;;;;5022558;28;20112;-73
2024/04/03 08:36:00;;;;;;;0.98;0.43;;;13.40;99.90;;;;;;5031926;28;20112;-72
2024/04/03 08:38:26;;;;;;;1.42;0.75;;;13.50;99.90;;;;;;5032969;28;20049;-73
2024/04/03 08:41:00;;;;;;;1.15;0.65;;;13.80;99.90;;;;;;5032515;28;20505;-70
2024/04/03 08:43:26;;;;;;;2.08;0.85;;;14.00;99.90;;;;;;5032950;28;20041;-72
2024/04/03 08:45:53;;;;;;;4.65;1.98;;;14.20;99.90;;;;;;5030514;28;20107;-70
2024/04/03 08:48:22;;;;;;;2.10;0.70;;;14.40;99.90;;;;;;5032240;28;20750;-73
2024/04/03 08:50:55;;;;;;;3.40;1.38;;;14.60;99.80;;;;;;5026718;28;20030;-73
2024/04/03 08:53:22;;;;;;;2.63;1.00;;;14.80;99.20;;;;;;5032548;28;20064;-73
2024/04/03 08:55:53;;;;;;;4.70;0.90;;;14.80;99.00;;;;;;5025801;28;20028;-73
2024/04/03 08:58:19;;;;;;;3.95;1.67;;;14.80;99.10;;;;;;5030155;28;20076;-73
2024/04/03 09:00:44;;;;;;;3.22;1.08;;;14.80;99.10;;;;;;5031257;28;20033;-74
2024/04/03 09:03:13;;;;;;;4.57;1.00;;;14.80;98.70;;;;;;5019986;28;20056;-74
2024/04/03 09:05:39;;;;;;;5.55;1.80;;;14.80;99.10;;;;;;5018012;28;20418;-72
2024/04/03 09:08:06;;;;;;;7.47;1.70;;;14.80;99.00;;;;;;5018676;28;20033;-72
2024/04/03 09:10:43;;;;;;;3.67;1.00;;;14.70;98.90;;;;;;5030042;28;20025;-74
2024/04/03 09:13:09;;;;;;;3.20;0.70;;;14.80;98.80;;;;;;5031002;28;20124;-72
2024/04/03 09:15:35;;;;;;;2.60;1.00;;;14.80;98.80;;;;;;5030107;28;20044;-72
2024/04/03 09:18:06;;;;;;;6.78;1.15;;;14.80;98.60;;;;;;5031026;28;20034;-72
2024/04/03 09:20:33;;;;;;;6.25;1.17;;;14.90;98.60;;;;;;5029068;28;20042;-74
2024/04/03 09:22:58;;;;;;;5.32;1.20;;;14.90;98.70;;;;;;5024051;28;20029;-73
2024/04/03 09:25:28;;;;;;;2.25;1.00;;;15.10;98.90;;;;;;5032204;28;20108;-73
2024/04/03 09:28:06;;;;;;;1.90;1.00;;;15.20;98.50;;;;;;5029148;28;20467;-70
2024/04/03 09:30:33;;;;;;;3.05;0.80;;;15.30;98.40;;;;;;5031878;28;20038;-73
2024/04/03 09:33:00;;;;;;;2.78;1.10;;;15.40;97.90;;;;;;5030998;28;20072;-73
2024/04/03 09:35:28;;;;;;;2.53;1.23;;;15.60;97.90;;;;;;5031582;28;20435;-72
2024/04/03 09:37:55;;;;;;;5.22;1.45;;;15.70;97.90;;;;;;5027270;28;20446;-69
2024/04/03 09:40:27;;;;;;;4.75;0.90;;;15.90;97.70;;;;;;5025921;28;20108;-73
2024/04/03 09:43:00;;;;;;;7.43;1.08;;;16.00;97.80;;;;;;5030985;28;20487;-73
2024/04/03 09:45:26;;;;;;;6.60;1.98;;;16.00;97.40;;;;;;5023797;28;20026;-74
2024/04/03 09:47:58;;;;;;;3.67;1.10;;;16.10;97.30;;;;;;5031337;28;20033;-71
2024/04/03 09:50:33;;;;;;;3.58;0.90;;;16.20;96.90;;;;;;5029019;28;20037;-73
2024/04/03 09:52:59;;;;;;;4.43;1.02;;;16.20;96.70;;;;;;5027605;28;20116;-72
2024/04/03 09:55:29;;;;;;;2.00;0.68;;;16.40;96.60;;;;;;5031102;28;20022;-74
2024/04/03 09:58:02;;;;;;;1.23;0.60;;;16.50;96.20;;;;;;5028620;28;20060;-72
2024/04/03 10:00:28;;;;;;;3.40;1.00;;;16.70;95.70;;;;;;5031172;28;20109;-73
2024/04/03 10:02:54;;;;;;;4.38;1.25;;;16.60;95.60;;;;;;5028182;28;20045;-71
2024/04/03 10:05:36;;;;;;;3.78;1.20;;;16.60;95.50;;;;;;5027239;28;20049;-73
2024/04/03 10:08:12;;;;;;;1.05;0.60;;;16.50;95.60;;;;;;5023543;28;20033;-73
2024/04/03 10:10:45;;;;;;;1.92;0.63;;;16.60;95.20;;;;;;5026969;28;20423;-73
2024/04/03 10:13:26;;;;;;;4.47;0.57;;;16.60;93.60;;;;;;5030013;28;20100;-73
2024/04/03 10:16:12;;;;;;;3.03;0.55;;;16.50;93.20;;;;;;5023020;28;20029;-71
2024/04/03 10:18:43;;;;;;;1.42;0.65;;;16.20;93.20;;;;;;5030958;28;20091;-74
2024/04/03 10:21:10;;;;;;;1.15;0.50;;;16.10;93.30;;;;;;5027617;28;20041;-74
2024/04/03 10:23:43;;;;;;;1.27;0.47;;;16.00;93.50;;;;;;5028398;28;20029;-73
2024/04/03 10:26:10;;;;;;;1.10;0.57;;;15.90;94.10;;;;;;5029644;28;20026;-73
2024/04/03 10:28:36;;;;;;;5.68;0.60;;;15.90;94.70;;;;;;5030573;28;20103;-74
2024/04/03 10:31:02;;;;;;;3.20;0.40;;;15.60;95.40;;;;;;5025308;28;20032;-73
2024/04/03 10:33:28;;;;;;;1.90;0.50;;;15.40;97.00;;;;;;5031265;28;20370;-73
2024/04/03 10:35:55;;;;;;;2.60;0.63;;;15.10;97.20;;;;;;5029782;28;20025;-69
2024/04/03 10:38:21;;;;;;;1.95;0.32;;;15.00;98.30;;;;;;5030877;28;20056;-72
2024/04/03 10:40:47;;;;;;;0.30;0.25;;;15.00;97.80;;;;;;5030772;28;20061;-73
2024/04/03 10:43:13;;;;;;;0.20;0.20;;;14.90;98.00;;;;;;5029607;28;20034;-72
2024/04/03 10:45:38;;;;;;;4.30;0.38;;;14.70;98.60;;;;;;5018950;28;20021;-74
2024/04/03 10:48:09;;;;;;;0.73;0.30;;;14.70;98.40;;;;;;5024475;28;20120;-72
2024/04/03 10:50:37;;;;;;;1.05;0.40;;;14.70;99.10;;;;;;5026820;28;20037;-73
2024/04/03 10:53:02;;;;;;;0.60;0.30;;;14.70;99.00;;;;;;5028446;28;20575;-72
2024/04/03 10:55:30;;;;;;;0.60;0.32;;;14.80;99.20;;;;;;5030212;28;20026;-73
2024/04/03 10:58:02;;;;;;;1.10;0.30;;;14.90;99.10;;;;;;5026070;28;20029;-73
2024/04/03 11:00:39;;;;;;;0.52;0.28;;;15.00;98.90;;;;;;5029724;28;20255;-73
2024/04/03 11:03:06;;;;;;;0.38;0.38;;;15.20;98.80;;;;;;5028961;28;20124;-72
2024/04/03 11:05:32;;;;;;;0.73;0.15;;;15.30;98.20;;;;;;5025931;28;20049;-74
2024/04/03 11:08:00;;;;;;;0.80;0.40;;;15.20;98.80;;;;;;5027075;28;20032;-75
2024/04/03 11:10:26;;;;;;;1.17;0.40;;;15.10;99.20;;;;;;5029631;28;20070;-72
2024/04/03 11:13:14;;;;;;;0.52;0.20;;;15.10;98.80;;;;;;5030281;28;20383;-71
2024/04/03 11:15:40;;;;;;;1.35;0.70;;;15.30;98.80;;;;;;5030178;28;20061;-75
2024/04/03 11:18:06;;;;;;;2.35;0.47;;;15.40;98.50;;;;;;5029251;28;20063;-74
2024/04/03 11:20:34;;;;;;;2.20;0.73;;;15.50;97.90;;;;;;5028847;28;20095;-72
2024/04/03 11:23:00;;;;;;;1.63;0.80;;;15.40;98.40;;;;;;5024855;28;20029;-73
2024/04/03 11:25:27;;;;;;;0.75;0.40;;;15.30;97.90;;;;;;5030257;28;20022;-74
2024/04/03 11:27:53;;;;;;;0.85;0.40;;;15.20;98.10;;;;;;5025428;28;20030;-71
2024/04/03 11:30:19;;;;;;;0.80;0.40;;;15.00;98.20;;;;;;5029865;28;20040;-73
2024/04/03 11:32:45;;;;;;;1.80;0.35;;;14.80;98.30;;;;;;5030005;28;20386;-73
2024/04/03 11:35:11;;;;;;;0.65;0.25;;;14.70;98.50;;;;;;5029843;28;20025;-74
2024/04/03 11:37:38;;;;;;;0.52;0.50;;;14.70;98.50;;;;;;5029706;28;20026;-74
2024/04/03 11:40:05;;;;;;;3.13;0.20;;;14.80;98.50;;;;;;5022493;28;20045;-72
2024/04/03 11:42:37;;;;;;;1.30;0.30;;;14.80;98.40;;;;;;5032909;28;20029;-74
2024/04/03 11:45:04;;;;;;;1.95;0.30;;;14.70;98.60;;;;;;5032412;28;20026;-75
2024/04/03 11:47:31;;;;;;;0.30;0.28;;;14.60;99.20;;;;;;5030406;28;20056;-75
2024/04/03 11:49:57;;;;;;;2.42;0.40;;;14.50;99.90;;;;;;5031748;28;20040;-74
2024/04/03 11:52:23;;;;;;;1.77;0.60;;;14.30;99.90;;;;;;5021907;28;20025;-73
2024/04/03 11:54:48;;;;;;;0.20;0.20;;;14.20;99.90;;;;;;5033472;28;20038;-72
2024/04/03 11:57:14;;;;;;;0.28;0.20;;;14.20;99.90;;;;;;5025421;28;20036;-73
2024/04/03 11:59:40;;;;;;;0.38;0.30;;;14.30;99.90;;;;;;5033796;28;20110;-73
2024/04/03 12:02:06;;;;;;;0.65;0.32;;;14.40;99.90;;;;;;5032798;28;20467;-73
2024/04/03 12:04:32;;;;;;;0.50;0.25;;;14.50;99.90;;;;;;5033079;28;20061;-73
2024/04/03 12:06:58;;;;;;;0.28;0.28;;;14.60;99.90;;;;;;5030094;28;20054;-74
2024/04/03 12:09:24;;;;;;;0.65;0.25;;;14.70;99.90;;;;;;5033407;28;20044;-72
2024/04/03 12:11:50;;;;;;;0.30;0.30;;;14.80;99.90;;;;;;5033323;28;20446;-73
2024/04/03 12:14:15;;;;;;;0.52;0.22;;;14.70;99.90;;;;;;5038720;28;20064;-73
2024/04/03 12:16:41;;;;;;;0.45;0.20;;;14.70;99.90;;;;;;5033143;28;20030;-74
2024/04/03 12:19:26;;;;;;;0.80;0.30;;;14.60;99.90;;;;;;5027690;28;20029;-74
2024/04/03 12:21:53;;;;;;;1.85;0.30;;;14.50;99.90;;;;;;5033200;28;20029;-71
2024/04/03 12:24:19;;;;;;;0.70;0.30;;;14.40;99.90;;;;;;5030613;28;20044;-73
2024/04/03 12:26:45;;;;;;;0.95;0.30;;;14.30;99.90;;;;;;5030031;28;20025;-73
2024/04/03 12:29:12;;;;;;;0.50;0.22;;;14.20;99.90;;;;;;5020104;28;20022;-74
2024/04/03 12:31:38;;;;;;;0.60;0.20;;;14.20;99.90;;;;;;5028216;28;20029;-75
2024/04/03 12:34:06;;;;;;;1.33;0.22;;;14.00;99.90;;;;;;5033292;28;20043;-71
2024/04/03 12:36:32;;;;;;;0.40;0.40;;;13.90;99.90;;;;;;5030147;28;20112;-75
2024/04/03 12:38:57;;;;;;;0.25;0.22;;;13.90;99.90;;;;;;5029371;28;20101;-73
2024/04/03 12:41:23;;;;;;;0.57;0.45;;;13.90;99.90;;;;;;5028825;28;20029;-73
2024/04/03 12:43:49;;;;;;;0.20;0.20;;;13.90;99.90;;;;;;5027728;28;20057;-73
2024/04/03 12:46:14;;;;;;;1.25;0.30;;;13.90;99.90;;;;;;5032013;28;20068;-72
2024/04/03 12:48:41;;;;;;;0.40;0.20;;;13.90;99.90;;;;;;5029785;28;20038;-74
2024/04/03 12:51:06;;;;;;;0.73;0.20;;;13.90;99.90;;;;;;5026423;28;20095;-72
2024/04/03 12:53:32;;;;;;;1.75;0.13;;;13.80;99.90;;;;;;5028864;28;20418;-73
2024/04/03 12:55:58;;;;;;;0.77;0.35;;;13.80;99.90;;;;;;5032205;28;20025;-72
2024/04/03 12:58:23;;;;;;;0.20;0.20;;;13.70;99.90;;;;;;5032051;28;20084;-73
2024/04/03 13:00:49;;;;;;;0.15;0.10;;;13.60;99.90;;;;;;5033046;28;20071;-73